Latest Coastal Weather Observations for Rottnest Island

IDW60701

Issued at 4:13 am WST Monday 5 December 2016 (issued every 10 minutes, with the page automatically refreshed every 10 minutes)

About coastal observations | Map of coastal stations | Coastal observations for WA | Marine services | Other Formats
Station Details ID: 009193 Name: ROTTNEST ISLAND Lat: -32.01 Lon: 115.50 Height: 43.1 m
Data from the previous 72 hours. | See also: Recent months at Rottnest Island
Date/Time
WST
Temp
°C
Wind Pressure Rain since
9am
mm
Weather Cloud Vis
km
Sea
Height
m
Swell
Dir  Spd
kts
Gust
kts
hPa Trend Height
m
Period
s
Dir
05/04:00am 15.8 SSE 21 25 1013.7 - 0.0 - - - - - - -
05/03:30am 16.0 SSE 23 27 1013.4 - 0.0 - - - - - - -
05/03:00am 16.0 S 24 31 1013.2 - 0.0 - - - - - - -
05/02:30am 16.1 S 23 29 1013.3 - 0.0 - - - - - - -
05/02:00am 16.1 S 24 30 1013.3 - 0.0 - - - - - - -
05/01:30am 16.2 S 25 29 1013.2 - 0.0 - - - - - - -
05/01:00am 16.4 S 24 29 1013.1 - 0.0 - - - - - - -
05/12:30am 16.7 SSE 23 29 1012.9 - 0.0 - - - - - - -
05/12:00am 16.9 S 22 28 1013.1 - 0.0 - - - - - - -
 
Date/Time
WST
Temp
°C
Wind Pressure Rain since
9am
mm
Weather Cloud Vis
km
Sea
Height
m
Swell
Dir  Spd
kts
Gust
kts
hPa Trend Height
m
Period
s
Dir
04/11:30pm 16.9 S 21 26 1013.4 - 0.0 - - - - - - -
04/11:00pm 16.9 S 22 27 1013.4 - 0.0 - - - - - - -
04/10:30pm 16.9 S 20 24 1013.6 - 0.0 - - - - - - -
04/10:00pm 16.9 S 20 25 1013.8 - 0.0 - - - - - - -
04/09:30pm 16.9 S 19 23 1013.9 - 0.0 - - - - - - -
04/09:00pm 16.9 S 20 24 1014.0 - 0.0 - - - - - - -
04/08:30pm 17.0 SSW 21 26 1013.6 - 0.0 - - - - - - -
04/08:00pm 17.1 S 20 26 1013.4 - 0.0 - - - - - - -
04/07:30pm 17.3 SSW 21 25 1013.4 - 0.0 - - - - - - -
04/07:00pm 17.3 SSW 21 26 1013.4 - 0.0 - - - - - - -
04/06:30pm 17.8 SSW 21 27 1013.2 - 0.0 - - - - - - -
04/06:00pm 18.5 SSW 20 25 1013.0 - 0.0 - - - - - - -
04/05:30pm 18.2 SSW 21 27 1012.7 - 0.0 - - - - - - -
04/05:00pm 19.6 SSW 20 26 1012.6 - 0.0 - - - - - - -
04/04:30pm 19.3 SSW 20 24 1012.7 - 0.0 - - - - - - -
04/04:00pm 19.4 SW 19 23 1012.8 - 0.0 - - - - - - -
04/03:30pm 19.7 SW 18 21 1012.9 - 0.0 - - - - - - -
04/03:00pm 19.5 SSW 17 21 1013.2 - 0.0 - - - - - - -
04/02:30pm 19.2 SSW 17 21 1013.5 - 0.0 - - - - - - -
04/02:00pm 20.0 SW 16 20 1013.8 - 0.0 - - - - - - -
04/01:30pm 20.2 SSW 15 19 1013.9 - 0.0 - - - - - - -
04/01:00pm 19.4 SSW 15 19 1014.1 - 0.0 - - - - - - -
04/12:30pm 19.1 SSW 16 20 1014.4 - 0.0 - - - - - - -
04/12:00pm 19.8 S 15 19 1014.7 - 0.0 - - - - - - -
04/11:30am 19.6 S 15 19 1014.8 - 0.0 - - - - - - -
04/11:00am 19.7 S 15 19 1014.7 - 0.0 - - - - - - -
04/10:30am 18.9 SSE 12 14 1015.1 - 0.0 - - - - - - -
04/10:00am 18.5 SE 13 18 1015.2 - 0.0 - - - - - - -
04/09:30am 18.4 SSE 14 19 1015.2 - 0.0 - - - - - - -
04/09:00am 17.6 SSE 19 24 1014.9 - 0.4 - - - - - - -
04/08:30am 17.6 SE 16 22 1014.8 - 0.4 - - - - - - -
04/08:00am 16.9 SE 17 20 1014.6 - 0.4 - - - - - - -
04/07:30am 16.5 SE 15 19 1014.5 - 0.4 - - - - - - -
04/07:00am 16.5 SE 19 24 1014.0 - 0.4 - - - - - - -
04/06:30am 15.9 SE 17 23 1013.8 - 0.4 - - - - - - -
04/06:00am 15.7 SE 20 26 1013.4 - 0.4 - - - - - - -
04/05:30am 16.0 SSE 17 22 1013.2 - 0.4 - - - - - - -
04/05:00am 16.1 SSE 17 23 1012.5 - 0.4 - - - - - - -
04/04:30am 15.9 SSE 17 21 1012.3 - 0.4 - - - - - - -
04/04:00am 16.3 SE 16 21 1011.9 - 0.4 - - - - - - -
04/03:30am 17.2 S 15 23 1011.4 - 0.4 - - - - - - -
04/03:00am 17.1 SSW 19 22 1011.4 - 0.4 - - - - - - -
04/02:30am 17.2 S 18 23 1011.1 - 0.4 - - - - - - -
04/02:00am 17.1 S 20 25 1010.9 - 0.4 - - - - - - -
04/01:30am 17.4 SSW 19 25 1010.6 - 0.4 - - - - - - -
04/01:00am 17.2 S 20 25 1010.7 - 0.4 - - - - - - -
04/12:30am 17.3 S 20 25 1010.8 - 0.4 - - - - - - -
04/12:00am 17.6 S 20 25 1010.8 - 0.4 Recent precip. - - - - - -
 
Date/Time
WST
Temp
°C
Wind Pressure Rain since
9am
mm
Weather Cloud Vis
km
Sea
Height
m
Swell
Dir  Spd
kts
Gust
kts
hPa Trend Height
m
Period
s
Dir
03/11:30pm 17.7 S 20 24 1010.9 - 0.4 - - - - - - -
03/11:00pm 17.7 SSW 19 25 1010.7 - 0.2 - - - - - - -
03/10:55pm 18.0 SSW 15 25 1010.7 - 0.2 - - - - - - -
03/10:30pm 18.1 SSW 16 20 1010.9 - 0.2 - - - - - - -
03/10:00pm 18.3 SSW 14 17 1010.9 - 0.2 - - - - - - -
03/09:30pm 18.3 SSW 12 16 1010.8 - 0.2 - - - - - - -
03/09:00pm 18.5 SSW 14 19 1010.8 - 0.2 - - - - - - -
03/08:30pm 18.6 SSW 16 21 1010.5 - 0.2 - - - - - - -
03/08:00pm 18.7 SW 18 22 1010.2 - 0.2 - - - - - - -
03/07:30pm 18.9 SW 16 20 1009.9 - 0.2 - - - - - - -
03/07:00pm 18.8 SW 17 21 1009.7 - 0.2 - - - - - - -
03/06:30pm 18.6 SW 17 21 1009.6 - 0.2 - - - - - - -
03/06:00pm 19.2 WSW 16 20 1009.2 - 0.2 Recent precip. - - - - - -
03/05:30pm 17.7 WSW 17 24 1009.1 - 0.2 - - - - - - -
03/05:11pm 19.2 W 15 29 1009.0 - 0.0 - - - - - - -
03/05:00pm 20.6 W 14 18 1008.8 - 0.0 - - - - - - -
03/04:30pm 21.1 W 15 19 1008.7 - 0.0 - - - - - - -
03/04:00pm 21.3 W 15 19 1008.7 - 0.0 - - - - - - -
03/03:30pm 20.7 W 13 16 1008.7 - 0.0 - - - - - - -
03/03:00pm 20.2 W 15 20 1008.9 - 0.0 - - - - - - -
03/02:30pm 20.9 W 14 19 1008.8 - 0.0 - - - - - - -
03/02:00pm 20.8 W 15 18 1008.9 - 0.0 - - - - - - -
03/01:30pm 21.9 W 15 19 1008.8 - 0.0 - - - - - - -
03/01:00pm 20.9 W 13 17 1009.1 - 0.0 - - - - - - -
03/12:30pm 20.3 W 13 18 1009.1 - 0.0 - - - - - - -
03/12:00pm 20.4 W 13 18 1009.2 - 0.0 - - - - - - -
03/11:30am 20.2 W 13 17 1009.4 - 0.0 - - - - - - -
03/11:00am 19.8 W 11 16 1009.4 - 0.0 - - - - - - -
03/10:30am 19.8 W 11 16 1009.6 - 0.0 - - - - - - -
03/10:00am 20.1 SW 11 15 1009.4 - 0.0 - - - - - - -
03/09:30am 19.0 SW 11 15 1009.4 - 0.0 - - - - - - -
03/09:00am 18.9 SW 12 17 1009.2 - 0.0 - - - - - - -
03/08:30am 19.8 SW 10 14 1009.3 - 0.0 - - - - - - -
03/08:00am 19.3 SW 10 13 1009.2 - 0.0 - - - - - - -
03/07:30am 18.4 SW 11 14 1008.9 - 0.0 - - - - - - -
03/07:00am 17.4 SW 13 17 1008.7 - 0.0 - - - - - - -
03/06:30am 17.2 SW 14 17 1008.3 - 0.0 - - - - - - -
03/06:00am 17.0 SW 15 18 1008.0 - 0.0 - - - - - - -
03/05:30am 16.5 SSW 14 17 1007.8 - 0.0 - - - - - - -
03/05:00am 16.3 SSW 14 18 1007.7 - 0.0 - - - - - - -
03/04:30am 16.2 SSW 14 17 1007.6 - 0.0 - - - - - - -
03/04:00am 16.0 SSW 16 20 1007.1 - 0.0 - - - - - - -
03/03:30am 16.2 SSW 16 21 1007.0 - 0.0 - - - - - - -
03/03:00am 16.4 SSW 16 22 1007.3 - 0.0 - - - - - - -
03/02:30am 16.7 SSW 18 23 1007.2 - 0.0 - - - - - - -
03/02:00am 16.7 SSW 17 23 1007.3 - 0.0 - - - - - - -
03/01:30am 16.8 SSW 17 21 1007.6 - 0.0 - - - - - - -
03/01:00am 17.0 SSW 19 24 1007.7 - 0.0 - - - - - - -
03/12:30am 17.1 SSW 19 23 1007.9 - 0.0 - - - - - - -
03/12:00am 17.2 SSW 19 24 1008.2 - 0.0 - - - - - - -
 
Date/Time
WST
Temp
°C
Wind Pressure Rain since
9am
mm
Weather Cloud Vis
km
Sea
Height
m
Swell
Dir  Spd
kts
Gust
kts
hPa Trend Height
m
Period
s
Dir
02/11:30pm 17.3 SSW 17 22 1008.3 - 0.0 - - - - - - -
02/11:00pm 17.3 SSW 18 22 1008.9 - 0.0 - - - - - - -
02/10:30pm 17.3 SSW 17 21 1009.0 - 0.0 - - - - - - -
02/10:00pm 17.4 SSW 16 19 1009.0 - 0.0 - - - - - - -
02/09:30pm 17.3 SSW 16 19 1009.2 - 0.0 - - - - - - -
02/09:00pm 17.4 SSW 17 20 1009.0 - 0.0 - - - - - - -
02/08:30pm 17.6 SSW 16 20 1009.0 - 0.0 - - - - - - -
02/08:00pm 17.5 S 17 20 1008.9 - 0.0 - - - - - - -
02/07:30pm 17.5 S 17 21 1009.3 - 0.0 - - - - - - -
02/07:00pm 17.5 SSW 19 23 1009.2 - 0.0 - - - - - - -
02/06:30pm 18.1 SSW 20 23 1009.0 - 0.0 - - - - - - -
02/06:00pm 18.7 SSW 19 22 1009.1 - 0.0 - - - - - - -
02/05:30pm 18.9 SSW 19 23 1008.9 - 0.0 - - - - - - -
02/05:00pm 19.1 SSW 18 22 1009.2 - 0.0 - - - - - - -
02/04:30pm 19.9 SW 17 21 1009.1 - 0.0 - - - - - - -
02/04:00pm 19.7 SW 17 21 1009.1 - 0.0 - - - - - - -
02/03:30pm 20.5 SW 18 22 1009.4 - 0.0 - - - - - - -
02/03:00pm 20.5 SW 18 22 1009.7 - 0.0 - - - - - - -
02/02:30pm 20.3 SW 17 20 1009.8 - 0.0 - - - - - - -
02/02:00pm 20.5 SW 15 17 1010.2 - 0.0 - - - - - - -
02/01:30pm 20.5 SW 16 19 1010.6 - 0.0 - - - - - - -
02/01:00pm 20.4 SW 15 17 1010.8 - 0.0 - - - - - - -
02/12:30pm 20.9 SW 11 14 1011.0 - 0.0 - - - - - - -
02/12:00pm 20.5 SSW 10 14 1011.0 - 0.0 - - - - - - -
02/11:30am 20.2 S 7 11 1011.3 - 0.0 - - - - - - -
02/11:00am 19.0 S 9 11 1011.9 - 0.0 - - - - - - -
02/10:30am 18.6 S 9 11 1012.1 - 0.0 - - - - - - -
02/10:00am 18.7 S 9 13 1012.6 - 0.0 - - - - - - -
02/09:30am 18.8 SSE 10 13 1012.7 - 0.0 - - - - - - -
02/09:00am 18.0 SSE 9 11 1012.9 - 0.0 - - - - - - -
02/08:30am 18.3 SSE 8 11 1013.4 - 0.0 - - - - - - -
02/08:00am 17.3 SSE 8 10 1013.1 - 0.0 - - - - - - -
02/07:30am 17.4 SE 7 12 1013.0 - 0.0 - - - - - - -
02/07:00am 16.7 ESE 7 11 1013.3 - 0.0 - - - - - - -
02/06:30am 16.3 ESE 7 10 1013.3 - 0.0 - - - - - - -
02/06:00am 15.8 E 7 11 1013.0 - 0.0 - - - - - - -
02/05:30am 14.8 ESE 9 14 1012.8 - 0.0 - - - - - - -
02/05:00am 14.8 E 10 16 1012.5 - 0.0 - - - - - - -
02/04:30am 15.0 ESE 9 14 1012.8 - 0.0 - - - - - - -

Other Formats:

Comma delimited format used in spreadsheet applications
http://www.bom.gov.au/fwo/IDW60701/IDW60701.94602.axf

JavaScript Object Notation format (JSON) in row-major order
http://www.bom.gov.au/fwo/IDW60701/IDW60701.94602.json